Terminal Aerodrome Forecast
Issued by NWS

Home | Current Version | Previous Version | Text Only | Print | Product List | Glossary On
Versions: 1 2 3 4 5 6 7 8 9 10 11 12 13 14 15 16 17 18 19 20 21 22 23 24 25 26 27 28 29 30 31 32 33 34 35
000
FTUS45 KGJT 012342
TAFTEX
TAF
KTEX 012342Z 0200/0224 25004KT P6SM VCTS SCT060CB BKN100
      TEMPO 0200/0204 VRB10G20KT -TSRA BKN060CB
     FM020400 13004KT P6SM VCSH SCT060 BKN100
     FM021100 VRB03KT P6SM -SHRA BKN050
     FM021500 14005KT P6SM VCSH SCT050 BKN090
     FM021800 20006KT P6SM -TSRA BKN040CB OVC060=

USA.gov is the U.S. government's official web portal to all federal, state and local government web resources and services.